BCS1TQ EINN-EDDP
Flight info
| Callsign | BCS1TQ |
|---|---|
| Flight time | 1h 51m |
| Altitude | 37000 |
| Route | DIGAN3A DIGAN DCT VATRY DCT FACTU P155 SIVDA P137 REDFA L620 IXUVU DCT GOT GOT1G |
| Aircraft | B738/M-SDE2E3FGHIRWXY/LB1 |
Departure
| Time | 2026-05-08 15:27 |
|---|---|
| Airport | Shannon Airport (EINN) |
Arrival
| Time | 2026-05-08 17:18 |
|---|---|
| Airport | Leipzig/Halle Airport (EDDP) |
| Time | Latitude | Longitude | Altitude | Speed | Heading |
|---|---|---|---|---|---|
| 2026-05-08 14:58 | 52.69222 | -8.91712 | 20 ft | 0 kts | 229° |
| 2026-05-08 15:18 | 52.69223 | -8.91711 | 20 ft | 2 kts | 229° |
| 2026-05-08 15:18 | 52.69240 | -8.91683 | 22 ft | 4 kts | 215° |
| 2026-05-08 15:18 | 52.69262 | -8.91659 | 20 ft | 4 kts | 226° |
| 2026-05-08 15:18 | 52.69269 | -8.91642 | 20 ft | 4 kts | 280° |
| 2026-05-08 15:19 | 52.69260 | -8.91614 | 19 ft | 3 kts | 309° |
| 2026-05-08 15:19 | 52.69244 | -8.91581 | 20 ft | 3 kts | 309° |
| 2026-05-08 15:19 | 52.69242 | -8.91577 | 19 ft | 1 kts | 309° |
| 2026-05-08 15:21 | 52.69243 | -8.91580 | 20 ft | 3 kts | 311° |
| 2026-05-08 15:21 | 52.69280 | -8.91651 | 19 ft | 11 kts | 309° |
| 2026-05-08 15:21 | 52.69344 | -8.91748 | 21 ft | 13 kts | 338° |
| 2026-05-08 15:21 | 52.69423 | -8.91817 | 20 ft | 13 kts | 302° |
| 2026-05-08 15:22 | 52.69451 | -8.91955 | 19 ft | 13 kts | 283° |
| 2026-05-08 15:22 | 52.69472 | -8.92095 | 22 ft | 13 kts | 283° |
| 2026-05-08 15:22 | 52.69501 | -8.92242 | 23 ft | 14 kts | 293° |
| 2026-05-08 15:22 | 52.69560 | -8.92394 | 21 ft | 18 kts | 315° |
| 2026-05-08 15:23 | 52.69672 | -8.92573 | 21 ft | 24 kts | 316° |
| 2026-05-08 15:23 | 52.69789 | -8.92760 | 21 ft | 23 kts | 315° |
| 2026-05-08 15:23 | 52.69899 | -8.92943 | 22 ft | 22 kts | 315° |
| 2026-05-08 15:23 | 52.69883 | -8.93150 | 23 ft | 22 kts | 231° |
| 2026-05-08 15:24 | 52.69792 | -8.93343 | 24 ft | 21 kts | 232° |
| 2026-05-08 15:24 | 52.69704 | -8.93529 | 26 ft | 20 kts | 232° |
| 2026-05-08 15:24 | 52.69619 | -8.93711 | 28 ft | 20 kts | 232° |
| 2026-05-08 15:24 | 52.69535 | -8.93887 | 29 ft | 19 kts | 232° |
| 2026-05-08 15:25 | 52.69439 | -8.94089 | 32 ft | 25 kts | 232° |
| 2026-05-08 15:25 | 52.69306 | -8.94243 | 32 ft | 16 kts | 213° |
| 2026-05-08 15:25 | 52.69337 | -8.94319 | 33 ft | 12 kts | 37° |
| 2026-05-08 15:25 | 52.69385 | -8.94204 | 33 ft | 13 kts | 52° |
| 2026-05-08 15:26 | 52.69571 | -8.93809 | 27 ft | 76 kts | 52° |
| 2026-05-08 15:26 | 52.70014 | -8.92872 | 20 ft | 128 kts | 52° |
| 2026-05-08 15:26 | 52.70655 | -8.91543 | 95 ft | 166 kts | 51° |
| 2026-05-08 15:26 | 52.71375 | -8.89930 | 501 ft | 178 kts | 53° |
| 2026-05-08 15:27 | 52.72156 | -8.88306 | 994 ft | 186 kts | 45° |
| 2026-05-08 15:27 | 52.72852 | -8.86572 | 1803 ft | 174 kts | 63° |
| 2026-05-08 15:27 | 52.73376 | -8.84700 | 2215 ft | 190 kts | 63° |
| 2026-05-08 15:27 | 52.73970 | -8.82632 | 2374 ft | 208 kts | 63° |
| 2026-05-08 15:28 | 52.74625 | -8.80400 | 2613 ft | 220 kts | 62° |
| 2026-05-08 15:28 | 52.75280 | -8.78118 | 3020 ft | 226 kts | 69° |
| 2026-05-08 15:28 | 52.75365 | -8.75490 | 3570 ft | 230 kts | 93° |
| 2026-05-08 15:28 | 52.75196 | -8.72855 | 4090 ft | 230 kts | 93° |
| 2026-05-08 15:29 | 52.75038 | -8.70253 | 4524 ft | 236 kts | 93° |
| 2026-05-08 15:29 | 52.74879 | -8.67467 | 4804 ft | 251 kts | 94° |
| 2026-05-08 15:29 | 52.74719 | -8.64531 | 5326 ft | 259 kts | 94° |
| 2026-05-08 15:29 | 52.74560 | -8.61561 | 5996 ft | 261 kts | 94° |
| 2026-05-08 15:30 | 52.74405 | -8.58577 | 6681 ft | 263 kts | 95° |
| 2026-05-08 15:30 | 52.74248 | -8.55522 | 7255 ft | 269 kts | 95° |
| 2026-05-08 15:30 | 52.74091 | -8.52417 | 7911 ft | 272 kts | 95° |
| 2026-05-08 15:30 | 52.73932 | -8.49288 | 8601 ft | 275 kts | 96° |
| 2026-05-08 15:31 | 52.73774 | -8.46154 | 9391 ft | 276 kts | 95° |
| 2026-05-08 15:31 | 52.73613 | -8.42965 | 10035 ft | 281 kts | 96° |
| 2026-05-08 15:31 | 52.73447 | -8.39694 | 10448 ft | 296 kts | 97° |
| 2026-05-08 15:31 | 52.73268 | -8.36187 | 10621 ft | 317 kts | 97° |
| 2026-05-08 15:32 | 52.73077 | -8.32463 | 10898 ft | 333 kts | 97° |
| 2026-05-08 15:32 | 52.72880 | -8.28606 | 11439 ft | 340 kts | 97° |
| 2026-05-08 15:32 | 52.72677 | -8.24680 | 12023 ft | 346 kts | 97° |
| 2026-05-08 15:32 | 52.72470 | -8.20693 | 12688 ft | 351 kts | 97° |
| 2026-05-08 15:33 | 52.72260 | -8.16670 | 13368 ft | 355 kts | 97° |
| 2026-05-08 15:33 | 52.72047 | -8.12589 | 14036 ft | 360 kts | 97° |
| 2026-05-08 15:33 | 52.71830 | -8.08451 | 14668 ft | 364 kts | 97° |
| 2026-05-08 15:33 | 52.71608 | -8.04260 | 15306 ft | 368 kts | 97° |
| 2026-05-08 15:34 | 52.71385 | -8.00044 | 15944 ft | 372 kts | 97° |
| 2026-05-08 15:34 | 52.71155 | -7.95757 | 16581 ft | 377 kts | 97° |
| 2026-05-08 15:34 | 52.70922 | -7.91421 | 17218 ft | 381 kts | 98° |
| 2026-05-08 15:34 | 52.70686 | -7.87052 | 17845 ft | 386 kts | 98° |
| 2026-05-08 15:35 | 52.70444 | -7.82615 | 18452 ft | 390 kts | 98° |
| 2026-05-08 15:35 | 52.70198 | -7.78142 | 18988 ft | 394 kts | 98° |
| 2026-05-08 15:35 | 52.69947 | -7.73618 | 19529 ft | 398 kts | 98° |
| 2026-05-08 15:35 | 52.69693 | -7.69056 | 20058 ft | 402 kts | 99° |
| 2026-05-08 15:36 | 52.69438 | -7.64502 | 20567 ft | 406 kts | 99° |
| 2026-05-08 15:36 | 52.69171 | -7.59785 | 21084 ft | 410 kts | 99° |
| 2026-05-08 15:36 | 52.68908 | -7.55151 | 21568 ft | 414 kts | 99° |
| 2026-05-08 15:36 | 52.68636 | -7.50400 | 22072 ft | 417 kts | 99° |
| 2026-05-08 15:37 | 52.68360 | -7.45622 | 22581 ft | 421 kts | 99° |
| 2026-05-08 15:37 | 52.68080 | -7.40799 | 23044 ft | 425 kts | 99° |
| 2026-05-08 15:37 | 52.67795 | -7.35920 | 23499 ft | 430 kts | 99° |
| 2026-05-08 15:37 | 52.67504 | -7.31001 | 23899 ft | 433 kts | 99° |
| 2026-05-08 15:38 | 52.67211 | -7.26045 | 24302 ft | 436 kts | 99° |
| 2026-05-08 15:38 | 52.66912 | -7.21051 | 24694 ft | 439 kts | 100° |
| 2026-05-08 15:38 | 52.66610 | -7.16019 | 25074 ft | 443 kts | 99° |
| 2026-05-08 15:38 | 52.66345 | -7.10956 | 25447 ft | 446 kts | 98° |
| 2026-05-08 15:39 | 52.66115 | -7.05830 | 25811 ft | 450 kts | 98° |
| 2026-05-08 15:39 | 52.65897 | -7.00670 | 26148 ft | 453 kts | 98° |
| 2026-05-08 15:39 | 52.65678 | -6.95481 | 26511 ft | 456 kts | 98° |
| 2026-05-08 15:39 | 52.65451 | -6.90256 | 26876 ft | 459 kts | 98° |
| 2026-05-08 15:40 | 52.65216 | -6.84994 | 27228 ft | 462 kts | 98° |
| 2026-05-08 15:40 | 52.64974 | -6.79717 | 27568 ft | 464 kts | 98° |
| 2026-05-08 15:40 | 52.64725 | -6.74406 | 27893 ft | 467 kts | 99° |
| 2026-05-08 15:40 | 52.64471 | -6.69053 | 28225 ft | 470 kts | 99° |
| 2026-05-08 15:41 | 52.64213 | -6.63681 | 28533 ft | 473 kts | 99° |
| 2026-05-08 15:41 | 52.63950 | -6.58272 | 28858 ft | 475 kts | 99° |
| 2026-05-08 15:41 | 52.63685 | -6.52844 | 29170 ft | 478 kts | 99° |
| 2026-05-08 15:41 | 52.63415 | -6.47379 | 29451 ft | 480 kts | 99° |
| 2026-05-08 15:42 | 52.63141 | -6.41878 | 29731 ft | 483 kts | 99° |
| 2026-05-08 15:42 | 52.62863 | -6.36358 | 30037 ft | 485 kts | 99° |
| 2026-05-08 15:42 | 52.62582 | -6.30809 | 30291 ft | 488 kts | 99° |
| 2026-05-08 15:42 | 52.62296 | -6.25233 | 30517 ft | 490 kts | 99° |
| 2026-05-08 15:43 | 52.62008 | -6.19641 | 30736 ft | 492 kts | 99° |
| 2026-05-08 15:43 | 52.61714 | -6.14005 | 30966 ft | 494 kts | 99° |
| 2026-05-08 15:43 | 52.61422 | -6.08458 | 31258 ft | 494 kts | 99° |
| 2026-05-08 15:43 | 52.61124 | -6.02837 | 31563 ft | 493 kts | 99° |
| 2026-05-08 15:44 | 52.60825 | -5.97233 | 32001 ft | 489 kts | 98° |
| 2026-05-08 15:44 | 52.60524 | -5.91659 | 32280 ft | 490 kts | 98° |
| 2026-05-08 15:44 | 52.60219 | -5.86078 | 32467 ft | 492 kts | 99° |
| 2026-05-08 15:44 | 52.59908 | -5.80455 | 32708 ft | 493 kts | 98° |
| 2026-05-08 15:45 | 52.59597 | -5.74849 | 33031 ft | 492 kts | 98° |
| 2026-05-08 15:45 | 52.59283 | -5.69245 | 33342 ft | 492 kts | 98° |
| 2026-05-08 15:45 | 52.58967 | -5.63645 | 33606 ft | 492 kts | 98° |
| 2026-05-08 15:45 | 52.58649 | -5.58040 | 33858 ft | 493 kts | 98° |
| 2026-05-08 15:46 | 52.58327 | -5.52426 | 34118 ft | 493 kts | 99° |
| 2026-05-08 15:46 | 52.58003 | -5.46828 | 34383 ft | 491 kts | 99° |
| 2026-05-08 15:46 | 52.57676 | -5.41244 | 34674 ft | 490 kts | 99° |
| 2026-05-08 15:46 | 52.57348 | -5.35694 | 34948 ft | 488 kts | 99° |
| 2026-05-08 15:47 | 52.57017 | -5.30139 | 35202 ft | 487 kts | 99° |
| 2026-05-08 15:47 | 52.56684 | -5.24598 | 35453 ft | 487 kts | 99° |
| 2026-05-08 15:47 | 52.56349 | -5.19069 | 35688 ft | 486 kts | 99° |
| 2026-05-08 15:47 | 52.56014 | -5.13558 | 35952 ft | 485 kts | 99° |
| 2026-05-08 15:48 | 52.55338 | -5.02575 | 36473 ft | 482 kts | 99° |
| 2026-05-08 15:48 | 52.54996 | -4.97097 | 36686 ft | 481 kts | 99° |
| 2026-05-08 15:48 | 52.54651 | -4.91619 | 36824 ft | 482 kts | 99° |
| 2026-05-08 15:49 | 52.54304 | -4.86131 | 36995 ft | 483 kts | 99° |
| 2026-05-08 15:49 | 52.53600 | -4.75132 | 37063 ft | 486 kts | 99° |
| 2026-05-08 15:50 | 52.52888 | -4.64138 | 37046 ft | 482 kts | 99° |
| 2026-05-08 15:50 | 52.52173 | -4.53251 | 37044 ft | 478 kts | 99° |
| 2026-05-08 15:51 | 52.51456 | -4.42509 | 37047 ft | 476 kts | 99° |
| 2026-05-08 15:51 | 52.50722 | -4.31689 | 37055 ft | 479 kts | 99° |
| 2026-05-08 15:52 | 52.49969 | -4.20747 | 37096 ft | 486 kts | 99° |
| 2026-05-08 15:52 | 52.49195 | -4.09642 | 37166 ft | 493 kts | 99° |
| 2026-05-08 15:53 | 52.48404 | -3.98423 | 37246 ft | 498 kts | 99° |
| 2026-05-08 15:53 | 52.47595 | -3.87104 | 37398 ft | 500 kts | 99° |
| 2026-05-08 15:53 | 52.47187 | -3.81447 | 37584 ft | 499 kts | 99° |
| 2026-05-08 15:54 | 52.46778 | -3.75814 | 37793 ft | 497 kts | 99° |
| 2026-05-08 15:54 | 52.46367 | -3.70197 | 37922 ft | 496 kts | 99° |
| 2026-05-08 15:54 | 52.45962 | -3.64586 | 38148 ft | 494 kts | 97° |
| 2026-05-08 15:54 | 52.45732 | -3.58988 | 38564 ft | 488 kts | 94° |
| 2026-05-08 15:55 | 52.45654 | -3.53465 | 38946 ft | 482 kts | 92° |
| 2026-05-08 15:55 | 52.45581 | -3.36937 | 39050 ft | 486 kts | 92° |
| 2026-05-08 15:56 | 52.45452 | -3.25840 | 39060 ft | 487 kts | 93° |
| 2026-05-08 15:56 | 52.45274 | -3.14717 | 39066 ft | 488 kts | 93° |
| 2026-05-08 15:57 | 52.45078 | -3.03574 | 39062 ft | 489 kts | 93° |
| 2026-05-08 15:57 | 52.44875 | -2.92437 | 39055 ft | 489 kts | 93° |
| 2026-05-08 15:58 | 52.44664 | -2.81306 | 39056 ft | 488 kts | 93° |
| 2026-05-08 15:58 | 52.44444 | -2.70191 | 39061 ft | 488 kts | 93° |
| 2026-05-08 15:59 | 52.44213 | -2.59094 | 39067 ft | 487 kts | 93° |
| 2026-05-08 15:59 | 52.43972 | -2.48015 | 39055 ft | 486 kts | 93° |
| 2026-05-08 16:00 | 52.43722 | -2.36948 | 39068 ft | 485 kts | 93° |
| 2026-05-08 16:00 | 52.43461 | -2.25896 | 39065 ft | 485 kts | 93° |
| 2026-05-08 16:01 | 52.43183 | -2.14871 | 39065 ft | 484 kts | 93° |
| 2026-05-08 16:01 | 52.42894 | -2.03836 | 39058 ft | 484 kts | 93° |
| 2026-05-08 16:02 | 52.42597 | -1.92837 | 39060 ft | 483 kts | 93° |
| 2026-05-08 16:02 | 52.42290 | -1.81826 | 39073 ft | 483 kts | 93° |
| 2026-05-08 16:03 | 52.41976 | -1.70845 | 39076 ft | 482 kts | 93° |
| 2026-05-08 16:03 | 52.41651 | -1.59945 | 39076 ft | 482 kts | 93° |
| 2026-05-08 16:04 | 52.41314 | -1.48974 | 39078 ft | 482 kts | 93° |
| 2026-05-08 16:04 | 52.40968 | -1.38000 | 39090 ft | 482 kts | 93° |
| 2026-05-08 16:05 | 52.40610 | -1.27045 | 39090 ft | 482 kts | 93° |
| 2026-05-08 16:05 | 52.40241 | -1.16061 | 39088 ft | 483 kts | 93° |
| 2026-05-08 16:06 | 52.39864 | -1.05096 | 39090 ft | 483 kts | 94° |
| 2026-05-08 16:06 | 52.39476 | -0.94116 | 39082 ft | 483 kts | 93° |
| 2026-05-08 16:07 | 52.39079 | -0.83151 | 39078 ft | 483 kts | 93° |
| 2026-05-08 16:07 | 52.38673 | -0.72177 | 39070 ft | 483 kts | 93° |
| 2026-05-08 16:08 | 52.38159 | -0.61229 | 39068 ft | 482 kts | 96° |
| 2026-05-08 16:08 | 52.37465 | -0.52098 | 39081 ft | 482 kts | 97° |
| 2026-05-08 16:09 | 52.36601 | -0.41301 | 39076 ft | 482 kts | 97° |
| 2026-05-08 16:09 | 52.35765 | -0.30364 | 39079 ft | 481 kts | 97° |
| 2026-05-08 16:10 | 52.34948 | -0.19498 | 39085 ft | 481 kts | 97° |
| 2026-05-08 16:10 | 52.34120 | -0.08624 | 39069 ft | 481 kts | 97° |
| 2026-05-08 16:11 | 52.33283 | 0.02213 | 39080 ft | 480 kts | 97° |
| 2026-05-08 16:11 | 52.32435 | 0.13042 | 39073 ft | 480 kts | 97° |
| 2026-05-08 16:12 | 52.31580 | 0.23847 | 39076 ft | 479 kts | 97° |
| 2026-05-08 16:12 | 52.30718 | 0.34645 | 39076 ft | 479 kts | 97° |
| 2026-05-08 16:13 | 52.29846 | 0.45435 | 39067 ft | 479 kts | 97° |
| 2026-05-08 16:13 | 52.28966 | 0.56202 | 39079 ft | 478 kts | 97° |
| 2026-05-08 16:14 | 52.28076 | 0.66960 | 39063 ft | 478 kts | 97° |
| 2026-05-08 16:14 | 52.27178 | 0.77689 | 39078 ft | 477 kts | 97° |
| 2026-05-08 16:15 | 52.26272 | 0.88408 | 39088 ft | 476 kts | 97° |
| 2026-05-08 16:15 | 52.25358 | 0.99091 | 39099 ft | 475 kts | 98° |
| 2026-05-08 16:16 | 52.24435 | 1.09771 | 39106 ft | 475 kts | 98° |
| 2026-05-08 16:16 | 52.23510 | 1.20356 | 39102 ft | 474 kts | 98° |
| 2026-05-08 16:17 | 52.22571 | 1.30987 | 39105 ft | 474 kts | 98° |
| 2026-05-08 16:17 | 52.21622 | 1.41619 | 39107 ft | 473 kts | 98° |
| 2026-05-08 16:18 | 52.20658 | 1.52301 | 39113 ft | 473 kts | 98° |
| 2026-05-08 16:18 | 52.19700 | 1.62819 | 39110 ft | 473 kts | 98° |
| 2026-05-08 16:19 | 52.18998 | 1.73464 | 39115 ft | 472 kts | 92° |
| 2026-05-08 16:19 | 52.18758 | 1.84226 | 39115 ft | 472 kts | 91° |
| 2026-05-08 16:20 | 52.18516 | 1.94898 | 39117 ft | 472 kts | 92° |
| 2026-05-08 16:20 | 52.18200 | 2.05506 | 39111 ft | 472 kts | 93° |
| 2026-05-08 16:21 | 52.17846 | 2.16183 | 39117 ft | 472 kts | 93° |
| 2026-05-08 16:21 | 52.17483 | 2.26880 | 39116 ft | 473 kts | 93° |
| 2026-05-08 16:22 | 52.17112 | 2.37605 | 39118 ft | 474 kts | 93° |
| 2026-05-08 16:22 | 52.16734 | 2.48326 | 39116 ft | 475 kts | 94° |
| 2026-05-08 16:23 | 52.16334 | 2.59069 | 39119 ft | 476 kts | 94° |
| 2026-05-08 16:23 | 52.15918 | 2.69842 | 39119 ft | 477 kts | 94° |
| 2026-05-08 16:24 | 52.15493 | 2.80625 | 39115 ft | 477 kts | 94° |
| 2026-05-08 16:24 | 52.15060 | 2.91418 | 39115 ft | 478 kts | 94° |
| 2026-05-08 16:25 | 52.14616 | 3.02218 | 39112 ft | 479 kts | 94° |
| 2026-05-08 16:25 | 52.14163 | 3.13037 | 39122 ft | 479 kts | 94° |
| 2026-05-08 16:26 | 52.13699 | 3.23860 | 39128 ft | 480 kts | 94° |
| 2026-05-08 16:26 | 52.13223 | 3.34679 | 39129 ft | 480 kts | 94° |
| 2026-05-08 16:27 | 52.12736 | 3.45519 | 39130 ft | 480 kts | 94° |
| 2026-05-08 16:27 | 52.12241 | 3.56351 | 39122 ft | 480 kts | 94° |
| 2026-05-08 16:28 | 52.11736 | 3.67181 | 39125 ft | 480 kts | 95° |
| 2026-05-08 16:28 | 52.11223 | 3.78016 | 39114 ft | 480 kts | 95° |
| 2026-05-08 16:29 | 52.10698 | 3.88838 | 39115 ft | 480 kts | 95° |
| 2026-05-08 16:29 | 52.10161 | 3.99652 | 39107 ft | 480 kts | 95° |
| 2026-05-08 16:30 | 52.09616 | 4.10455 | 39111 ft | 480 kts | 95° |
| 2026-05-08 16:30 | 52.09065 | 4.21203 | 39107 ft | 480 kts | 95° |
| 2026-05-08 16:31 | 52.08498 | 4.32078 | 39104 ft | 480 kts | 95° |
| 2026-05-08 16:31 | 52.07926 | 4.42865 | 39103 ft | 479 kts | 95° |
| 2026-05-08 16:32 | 52.07343 | 4.53667 | 39101 ft | 479 kts | 95° |
| 2026-05-08 16:32 | 52.06749 | 4.64459 | 39101 ft | 479 kts | 95° |
| 2026-05-08 16:33 | 52.06148 | 4.75176 | 39101 ft | 479 kts | 95° |
| 2026-05-08 16:33 | 52.05535 | 4.85956 | 39103 ft | 479 kts | 96° |
| 2026-05-08 16:34 | 52.04916 | 4.96689 | 39099 ft | 479 kts | 96° |
| 2026-05-08 16:34 | 52.04285 | 5.07472 | 39103 ft | 479 kts | 96° |
| 2026-05-08 16:35 | 52.03641 | 5.18249 | 39100 ft | 479 kts | 96° |
| 2026-05-08 16:35 | 52.02988 | 5.29014 | 39102 ft | 479 kts | 96° |
| 2026-05-08 16:36 | 52.02341 | 5.39540 | 39095 ft | 479 kts | 96° |
| 2026-05-08 16:36 | 52.01671 | 5.50316 | 39101 ft | 479 kts | 96° |
| 2026-05-08 16:37 | 52.00988 | 5.61077 | 39103 ft | 480 kts | 96° |
| 2026-05-08 16:37 | 52.00295 | 5.71840 | 39102 ft | 480 kts | 96° |
| 2026-05-08 16:38 | 51.99594 | 5.82604 | 39102 ft | 480 kts | 96° |
| 2026-05-08 16:38 | 51.98885 | 5.93369 | 39100 ft | 480 kts | 96° |
| 2026-05-08 16:39 | 51.98163 | 6.04137 | 39103 ft | 480 kts | 97° |
| 2026-05-08 16:39 | 51.97428 | 6.14914 | 39109 ft | 480 kts | 97° |
| 2026-05-08 16:40 | 51.96685 | 6.25672 | 39108 ft | 480 kts | 97° |
| 2026-05-08 16:40 | 51.95934 | 6.36427 | 39115 ft | 480 kts | 97° |
| 2026-05-08 16:41 | 51.95100 | 6.47158 | 39114 ft | 480 kts | 100° |
| 2026-05-08 16:42 | 51.93288 | 6.63090 | 39119 ft | 480 kts | 101° |
| 2026-05-08 16:42 | 51.92112 | 6.73732 | 39122 ft | 480 kts | 101° |
| 2026-05-08 16:43 | 51.90954 | 6.84376 | 39123 ft | 480 kts | 101° |
| 2026-05-08 16:43 | 51.89787 | 6.95015 | 39130 ft | 480 kts | 101° |
| 2026-05-08 16:44 | 51.88609 | 7.05643 | 39133 ft | 480 kts | 101° |
| 2026-05-08 16:44 | 51.87419 | 7.16269 | 39127 ft | 480 kts | 101° |
| 2026-05-08 16:45 | 51.86223 | 7.26851 | 39133 ft | 480 kts | 101° |
| 2026-05-08 16:45 | 51.85012 | 7.37494 | 39131 ft | 479 kts | 101° |
| 2026-05-08 16:46 | 51.83795 | 7.48096 | 39133 ft | 479 kts | 101° |
| 2026-05-08 16:46 | 51.82573 | 7.58673 | 39131 ft | 479 kts | 101° |
| 2026-05-08 16:47 | 51.81349 | 7.69176 | 39129 ft | 479 kts | 102° |
| 2026-05-08 16:47 | 51.80105 | 7.79741 | 39130 ft | 478 kts | 102° |
| 2026-05-08 16:48 | 51.78853 | 7.90279 | 39140 ft | 478 kts | 102° |
| 2026-05-08 16:48 | 51.77598 | 8.00783 | 39112 ft | 479 kts | 102° |
| 2026-05-08 16:48 | 51.76955 | 8.06127 | 38561 ft | 486 kts | 102° |
| 2026-05-08 16:49 | 51.76310 | 8.11466 | 37949 ft | 484 kts | 102° |
| 2026-05-08 16:49 | 51.75666 | 8.16786 | 37266 ft | 483 kts | 102° |
| 2026-05-08 16:49 | 51.75019 | 8.22115 | 36678 ft | 481 kts | 102° |
| 2026-05-08 16:49 | 51.74375 | 8.27397 | 36181 ft | 478 kts | 102° |
| 2026-05-08 16:50 | 51.73736 | 8.32605 | 35811 ft | 471 kts | 102° |
| 2026-05-08 16:50 | 51.73102 | 8.37753 | 35358 ft | 468 kts | 102° |
| 2026-05-08 16:50 | 51.72467 | 8.42876 | 34934 ft | 464 kts | 102° |
| 2026-05-08 16:50 | 51.71835 | 8.47958 | 34498 ft | 460 kts | 103° |
| 2026-05-08 16:51 | 51.71208 | 8.52989 | 34068 ft | 456 kts | 103° |
| 2026-05-08 16:51 | 51.70582 | 8.57987 | 33570 ft | 453 kts | 103° |
| 2026-05-08 16:51 | 51.70163 | 8.61331 | 33259 ft | 450 kts | 103° |
| 2026-05-08 16:51 | 51.69544 | 8.66251 | 32846 ft | 445 kts | 103° |
| 2026-05-08 16:52 | 51.68929 | 8.71125 | 32415 ft | 441 kts | 102° |
| 2026-05-08 16:52 | 51.68319 | 8.75936 | 32012 ft | 437 kts | 103° |
| 2026-05-08 16:52 | 51.67711 | 8.80721 | 31602 ft | 433 kts | 103° |
| 2026-05-08 16:52 | 51.67107 | 8.85455 | 31202 ft | 430 kts | 103° |
| 2026-05-08 16:53 | 51.65907 | 8.94808 | 30417 ft | 423 kts | 102° |
| 2026-05-08 16:53 | 51.65311 | 8.99433 | 29996 ft | 420 kts | 102° |
| 2026-05-08 16:53 | 51.64719 | 9.04016 | 29564 ft | 416 kts | 103° |
| 2026-05-08 16:54 | 51.64128 | 9.08567 | 29160 ft | 412 kts | 103° |
| 2026-05-08 16:54 | 51.63545 | 9.13052 | 28754 ft | 409 kts | 103° |
| 2026-05-08 16:54 | 51.62962 | 9.17520 | 28349 ft | 406 kts | 103° |
| 2026-05-08 16:54 | 51.62382 | 9.21949 | 27959 ft | 403 kts | 103° |
| 2026-05-08 16:55 | 51.61805 | 9.26340 | 27552 ft | 400 kts | 103° |
| 2026-05-08 16:55 | 51.61230 | 9.30704 | 27166 ft | 397 kts | 103° |
| 2026-05-08 16:55 | 51.60657 | 9.35038 | 26771 ft | 395 kts | 103° |
| 2026-05-08 16:55 | 51.60086 | 9.39347 | 26373 ft | 393 kts | 103° |
| 2026-05-08 16:56 | 51.59515 | 9.43638 | 25983 ft | 391 kts | 103° |
| 2026-05-08 16:56 | 51.58947 | 9.47900 | 25606 ft | 389 kts | 103° |
| 2026-05-08 16:56 | 51.58378 | 9.52151 | 25237 ft | 388 kts | 103° |
| 2026-05-08 16:56 | 51.57821 | 9.56380 | 24810 ft | 387 kts | 101° |
| 2026-05-08 16:57 | 51.57424 | 9.60688 | 24309 ft | 390 kts | 97° |
| 2026-05-08 16:57 | 51.57138 | 9.65015 | 23888 ft | 390 kts | 96° |
| 2026-05-08 16:57 | 51.56882 | 9.69346 | 23468 ft | 388 kts | 96° |
| 2026-05-08 16:57 | 51.56624 | 9.73655 | 23032 ft | 387 kts | 96° |
| 2026-05-08 16:58 | 51.56354 | 9.77941 | 22632 ft | 384 kts | 96° |
| 2026-05-08 16:58 | 51.56074 | 9.82200 | 22242 ft | 381 kts | 97° |
| 2026-05-08 16:58 | 51.55788 | 9.86419 | 21854 ft | 379 kts | 97° |
| 2026-05-08 16:58 | 51.55496 | 9.90618 | 21487 ft | 377 kts | 97° |
| 2026-05-08 16:59 | 51.55201 | 9.94798 | 21109 ft | 375 kts | 97° |
| 2026-05-08 16:59 | 51.54906 | 9.98949 | 20733 ft | 373 kts | 97° |
| 2026-05-08 16:59 | 51.54611 | 10.03074 | 20360 ft | 371 kts | 97° |
| 2026-05-08 16:59 | 51.54315 | 10.07197 | 19995 ft | 370 kts | 97° |
| 2026-05-08 17:00 | 51.54020 | 10.11279 | 19632 ft | 368 kts | 97° |
| 2026-05-08 17:00 | 51.53724 | 10.15359 | 19264 ft | 367 kts | 97° |
| 2026-05-08 17:00 | 51.53428 | 10.19421 | 18900 ft | 366 kts | 97° |
| 2026-05-08 17:00 | 51.53136 | 10.23413 | 18541 ft | 365 kts | 97° |
| 2026-05-08 17:01 | 51.52838 | 10.27463 | 18135 ft | 364 kts | 97° |
| 2026-05-08 17:01 | 51.52536 | 10.31544 | 17726 ft | 362 kts | 97° |
| 2026-05-08 17:01 | 51.52245 | 10.35472 | 17352 ft | 361 kts | 97° |
| 2026-05-08 17:01 | 51.51947 | 10.39464 | 16980 ft | 359 kts | 97° |
| 2026-05-08 17:02 | 51.51651 | 10.43427 | 16611 ft | 357 kts | 97° |
| 2026-05-08 17:02 | 51.51351 | 10.47421 | 16247 ft | 355 kts | 97° |
| 2026-05-08 17:02 | 51.51054 | 10.51345 | 15888 ft | 353 kts | 97° |
| 2026-05-08 17:02 | 51.50754 | 10.55248 | 15528 ft | 352 kts | 97° |
| 2026-05-08 17:03 | 51.50453 | 10.59140 | 15167 ft | 350 kts | 97° |
| 2026-05-08 17:03 | 51.50153 | 10.63007 | 14810 ft | 349 kts | 97° |
| 2026-05-08 17:03 | 51.49855 | 10.66819 | 14457 ft | 348 kts | 97° |
| 2026-05-08 17:03 | 51.49553 | 10.70687 | 14086 ft | 342 kts | 97° |
| 2026-05-08 17:04 | 51.49258 | 10.74437 | 13706 ft | 335 kts | 97° |
| 2026-05-08 17:04 | 51.48969 | 10.78108 | 13337 ft | 330 kts | 97° |
| 2026-05-08 17:04 | 51.48685 | 10.81708 | 12991 ft | 329 kts | 97° |
| 2026-05-08 17:04 | 51.48393 | 10.85393 | 12639 ft | 328 kts | 97° |
| 2026-05-08 17:05 | 51.48108 | 10.88975 | 12299 ft | 328 kts | 97° |
| 2026-05-08 17:05 | 51.47818 | 10.92589 | 11950 ft | 327 kts | 97° |
| 2026-05-08 17:05 | 51.47526 | 10.96214 | 11579 ft | 327 kts | 97° |
| 2026-05-08 17:05 | 51.47228 | 10.99893 | 11165 ft | 329 kts | 97° |
| 2026-05-08 17:06 | 51.46933 | 11.03528 | 10827 ft | 328 kts | 97° |
| 2026-05-08 17:06 | 51.46637 | 11.07155 | 10527 ft | 326 kts | 97° |
| 2026-05-08 17:06 | 51.46350 | 11.10660 | 10395 ft | 318 kts | 97° |
| 2026-05-08 17:06 | 51.46068 | 11.14108 | 10239 ft | 304 kts | 97° |
| 2026-05-08 17:07 | 51.45797 | 11.17392 | 10144 ft | 289 kts | 97° |
| 2026-05-08 17:07 | 51.45532 | 11.20601 | 9755 ft | 286 kts | 97° |
| 2026-05-08 17:07 | 51.45269 | 11.23701 | 9481 ft | 283 kts | 99° |
| 2026-05-08 17:07 | 51.44799 | 11.26740 | 9258 ft | 277 kts | 106° |
| 2026-05-08 17:08 | 51.44294 | 11.29733 | 9010 ft | 273 kts | 104° |
| 2026-05-08 17:08 | 51.43827 | 11.32631 | 8736 ft | 272 kts | 104° |
| 2026-05-08 17:08 | 51.43359 | 11.35561 | 8451 ft | 273 kts | 104° |
| 2026-05-08 17:08 | 51.42887 | 11.38513 | 8170 ft | 274 kts | 104° |
| 2026-05-08 17:09 | 51.42412 | 11.41472 | 7904 ft | 274 kts | 104° |
| 2026-05-08 17:09 | 51.41938 | 11.44420 | 7645 ft | 274 kts | 104° |
| 2026-05-08 17:09 | 51.41460 | 11.47376 | 7376 ft | 274 kts | 104° |
| 2026-05-08 17:09 | 51.40979 | 11.50336 | 7105 ft | 275 kts | 104° |
| 2026-05-08 17:10 | 51.40498 | 11.53295 | 6831 ft | 275 kts | 104° |
| 2026-05-08 17:10 | 51.40014 | 11.56256 | 6556 ft | 275 kts | 104° |
| 2026-05-08 17:10 | 51.39523 | 11.59223 | 6263 ft | 275 kts | 104° |
| 2026-05-08 17:10 | 51.39035 | 11.62143 | 5964 ft | 268 kts | 104° |
| 2026-05-08 17:11 | 51.38588 | 11.65001 | 5682 ft | 263 kts | 98° |
| 2026-05-08 17:11 | 51.38695 | 11.67920 | 5374 ft | 263 kts | 79° |
| 2026-05-08 17:11 | 51.38954 | 11.70777 | 5285 ft | 249 kts | 84° |
| 2026-05-08 17:11 | 51.39073 | 11.73505 | 5037 ft | 243 kts | 86° |
| 2026-05-08 17:12 | 51.39175 | 11.76185 | 4900 ft | 239 kts | 86° |
| 2026-05-08 17:12 | 51.39285 | 11.78778 | 4783 ft | 234 kts | 86° |
| 2026-05-08 17:12 | 51.39396 | 11.81322 | 4707 ft | 223 kts | 86° |
| 2026-05-08 17:12 | 51.39503 | 11.83775 | 4492 ft | 214 kts | 86° |
| 2026-05-08 17:13 | 51.39603 | 11.86079 | 4298 ft | 207 kts | 86° |
| 2026-05-08 17:13 | 51.39701 | 11.88329 | 4213 ft | 193 kts | 86° |
| 2026-05-08 17:13 | 51.39790 | 11.90387 | 4079 ft | 185 kts | 86° |
| 2026-05-08 17:13 | 51.39888 | 11.92451 | 3840 ft | 185 kts | 86° |
| 2026-05-08 17:14 | 51.39975 | 11.94487 | 3587 ft | 182 kts | 86° |
| 2026-05-08 17:14 | 51.40062 | 11.96472 | 3363 ft | 176 kts | 86° |
| 2026-05-08 17:14 | 51.40148 | 11.98396 | 3137 ft | 171 kts | 86° |
| 2026-05-08 17:14 | 51.40232 | 12.00268 | 2913 ft | 166 kts | 86° |
| 2026-05-08 17:15 | 51.40313 | 12.02061 | 2688 ft | 158 kts | 86° |
| 2026-05-08 17:15 | 51.40390 | 12.03768 | 2498 ft | 150 kts | 86° |
| 2026-05-08 17:15 | 51.40462 | 12.05362 | 2341 ft | 138 kts | 86° |
| 2026-05-08 17:15 | 51.40530 | 12.06857 | 2133 ft | 131 kts | 85° |
| 2026-05-08 17:16 | 51.40597 | 12.08322 | 1964 ft | 134 kts | 85° |
| 2026-05-08 17:16 | 51.40666 | 12.09826 | 1786 ft | 136 kts | 85° |
| 2026-05-08 17:16 | 51.40735 | 12.11337 | 1626 ft | 142 kts | 85° |
| 2026-05-08 17:16 | 51.40811 | 12.12882 | 1443 ft | 139 kts | 85° |
| 2026-05-08 17:17 | 51.40855 | 12.14429 | 1168 ft | 133 kts | 86° |
| 2026-05-08 17:17 | 51.40928 | 12.15900 | 1003 ft | 132 kts | 83° |
| 2026-05-08 17:17 | 51.41024 | 12.17358 | 845 ft | 132 kts | 83° |
| 2026-05-08 17:17 | 51.41093 | 12.18819 | 675 ft | 131 kts | 85° |
| 2026-05-08 17:18 | 51.41144 | 12.20255 | 506 ft | 128 kts | 83° |
| 2026-05-08 17:18 | 51.41217 | 12.21609 | 453 ft | 112 kts | 84° |
| 2026-05-08 17:18 | 51.41263 | 12.22606 | 459 ft | 68 kts | 86° |
| 2026-05-08 17:18 | 51.41287 | 12.23133 | 464 ft | 26 kts | 86° |
| 2026-05-08 17:19 | 51.41212 | 12.23271 | 465 ft | 17 kts | 176° |
| 2026-05-08 17:19 | 51.41178 | 12.23275 | 466 ft | 0 kts | 176° |
| 2026-05-08 17:20 | 51.41174 | 12.23275 | 466 ft | 4 kts | 176° |
| 2026-05-08 17:20 | 51.41120 | 12.23259 | 467 ft | 9 kts | 179° |
| 2026-05-08 17:21 | 51.41061 | 12.23282 | 469 ft | 9 kts | 189° |
| 2026-05-08 17:21 | 51.41024 | 12.23205 | 469 ft | 10 kts | 236° |
| 2026-05-08 17:21 | 51.40955 | 12.23187 | 468 ft | 11 kts | 175° |
| 2026-05-08 17:21 | 51.40875 | 12.23197 | 466 ft | 12 kts | 176° |
| 2026-05-08 17:22 | 51.40792 | 12.23206 | 463 ft | 12 kts | 185° |
| 2026-05-08 17:22 | 51.40779 | 12.23177 | 462 ft | 3 kts | 261° |
| 2026-05-08 17:22 | 51.40776 | 12.23134 | 465 ft | 5 kts | 265° |
| 2026-05-08 17:22 | 51.40775 | 12.23102 | 466 ft | 1 kts | 266° |
| 2026-05-08 17:23 | 51.40775 | 12.23095 | 466 ft | 0 kts | 266° |